67CO weather

Highline Farm Airstrip
Bracewell, Colorado, United States

Public forecast

Using degrees Fahrenheit for public forecast. Weather courtesy of forecast.io.

METAR (pilot weather report)

Closest report is Greeley–Weld County Airport, 8.5 nm (15.7 km) ESE. Retrieved 2019/08/19 18:56 UTC (32 minutes ago):

KGXY 191856Z AUTO VRB03KT 9SM 34/M01 A3006 RMK AO2 SLP127 T03441006 $

TAF (pilot weather forecast)

Closest forecast is Rocky Mountain Metropolitan Airport, 36.5 nm (67.7 km) SSW. Retrieved 2019/08/19 18:22 UTC (1 hour ago):

TAF KBJC 191720Z 1918/2018 05007KT P6SM FEW120 SCT220 FM200000 34007KT P6SM SCT120 BKN220 FM200600 30005KT P6SM FEW120 SCT220